Time;durP1;ratioP1;P1;durP2;ratioP2;P2;SDS_P1;SDS_P2;PMS_P1;PMS_P2;Temp;Humidity;BMP_temperature;BMP_pressure;BME280_temperature;BME280_humidity;BME280_pressure;Samples;Min_cycle;Max_cycle;Signal;HPM_P1;HPM_P2
2020/12/09 00:01:40;;;;;;;17.87;13.77;;;;;;;3.76;76.84;94355.25;5054881;28;20202;-77
2020/12/09 00:04:06;;;;;;;18.20;13.20;;;;;;;3.73;76.36;94364.00;5053564;28;20197;-77
2020/12/09 00:06:35;;;;;;;18.00;14.00;;;;;;;3.72;76.57;94367.50;5054415;28;20324;-77
2020/12/09 00:09:01;;;;;;;18.80;14.17;;;;;;;3.73;76.17;94374.19;5054597;28;20205;-77
2020/12/09 00:11:27;;;;;;;17.80;14.07;;;;;;;3.75;76.39;94379.13;5054014;28;20592;-77
2020/12/09 00:13:53;;;;;;;20.10;14.70;;;;;;;3.75;76.33;94379.91;5053828;28;20209;-78
2020/12/09 00:16:19;;;;;;;18.63;14.67;;;;;;;3.79;76.15;94376.09;5053999;28;20707;-77
2020/12/09 00:18:46;;;;;;;17.60;14.57;;;;;;;3.77;76.14;94374.66;5053987;28;20206;-77
2020/12/09 00:21:16;;;;;;;17.47;14.17;;;;;;;3.74;75.65;94378.31;5053922;28;20212;-77
2020/12/09 00:23:42;;;;;;;18.33;14.20;;;;;;;3.69;76.15;94377.22;5054383;28;20228;-76
2020/12/09 00:26:08;;;;;;;17.43;13.63;;;;;;;3.70;75.91;94373.72;5053703;28;20225;-77
2020/12/09 00:28:34;;;;;;;18.07;14.30;;;;;;;3.73;76.03;94369.09;5054045;28;20225;-77
2020/12/09 00:31:03;;;;;;;19.03;14.47;;;;;;;3.66;75.97;94364.81;5053841;28;20891;-79
2020/12/09 00:33:30;;;;;;;18.07;14.30;;;;;;;3.68;75.65;94350.16;5054126;28;20205;-79
2020/12/09 00:35:57;;;;;;;18.53;14.20;;;;;;;3.70;75.46;94353.34;5053977;28;20208;-77
2020/12/09 00:38:23;;;;;;;20.60;15.00;;;;;;;3.61;76.29;94365.31;5053829;28;20216;-77
2020/12/09 00:40:49;;;;;;;19.07;14.67;;;;;;;3.54;75.79;94379.66;5053987;28;20571;-78
2020/12/09 00:43:15;;;;;;;17.93;14.33;;;;;;;3.55;76.29;94383.00;5053731;28;20257;-77
2020/12/09 00:45:41;;;;;;;18.63;14.97;;;;;;;3.44;76.60;94392.56;5053008;28;20224;-76
2020/12/09 00:48:07;;;;;;;19.07;14.60;;;;;;;3.47;76.76;94401.59;5053589;28;20211;-77
2020/12/09 00:50:33;;;;;;;18.27;14.07;;;;;;;3.44;77.13;94417.22;5053354;28;20208;-77
2020/12/09 00:52:59;;;;;;;20.33;15.10;;;;;;;3.46;76.51;94410.22;5053336;28;20224;-77
2020/12/09 00:55:25;;;;;;;17.30;13.67;;;;;;;3.52;76.39;94409.53;5053265;28;20225;-75
2020/12/09 00:57:51;;;;;;;18.63;14.13;;;;;;;3.43;76.32;94418.16;5053096;28;20263;-77
2020/12/09 01:00:18;;;;;;;19.57;14.80;;;;;;;3.42;76.63;94419.91;5053277;28;20236;-76
2020/12/09 01:02:44;;;;;;;20.20;14.60;;;;;;;3.40;76.93;94426.13;5053205;28;20197;-77
2020/12/09 01:05:14;;;;;;;17.40;13.93;;;;;;;3.41;76.52;94422.63;5053685;28;20204;-78
2020/12/09 01:07:41;;;;;;;17.50;13.83;;;;;;;3.40;76.46;94429.47;5053729;28;20228;-77
2020/12/09 01:10:08;;;;;;;16.47;13.53;;;;;;;3.39;76.60;94427.88;5053340;28;20233;-76
2020/12/09 01:12:35;;;;;;;18.83;15.23;;;;;;;3.40;76.42;94432.00;5053193;28;20225;-77
2020/12/09 01:15:01;;;;;;;17.07;13.90;;;;;;;3.45;76.40;94436.63;5052526;28;20204;-78
2020/12/09 01:17:27;;;;;;;18.03;14.90;;;;;;;3.43;76.25;94446.94;5053278;28;20229;-77
2020/12/09 01:19:52;;;;;;;19.20;15.37;;;;;;;3.46;76.05;94444.06;5053493;28;20300;-77
2020/12/09 01:22:18;;;;;;;18.43;14.67;;;;;;;3.51;76.10;94447.88;5053394;28;20194;-78
2020/12/09 01:24:45;;;;;;;21.43;15.87;;;;;;;3.56;76.11;94441.34;5053420;28;20251;-78
2020/12/09 01:27:11;;;;;;;18.03;14.77;;;;;;;3.60;76.04;94437.53;5053386;28;20229;-78
2020/12/09 01:29:37;;;;;;;17.57;14.03;;;;;;;3.58;75.49;94428.47;5053279;28;20227;-77
2020/12/09 01:32:03;;;;;;;17.53;13.90;;;;;;;3.60;75.40;94442.63;5052684;28;20221;-77
2020/12/09 01:34:30;;;;;;;17.57;14.47;;;;;;;3.56;75.50;94436.25;5053041;28;20206;-77
2020/12/09 01:36:56;;;;;;;17.60;14.13;;;;;;;3.59;75.50;94437.69;5053296;28;20643;-77
2020/12/09 01:39:22;;;;;;;18.80;14.83;;;;;;;3.61;75.41;94449.31;5053405;28;20212;-77
2020/12/09 01:41:49;;;;;;;18.07;13.83;;;;;;;3.64;75.85;94443.09;5053546;28;20206;-78
2020/12/09 01:44:15;;;;;;;18.67;14.73;;;;;;;3.65;75.24;94450.56;5052501;28;20206;-77
2020/12/09 01:46:42;;;;;;;18.50;14.70;;;;;;;3.62;75.53;94463.63;5053227;28;20232;-77
2020/12/09 01:49:09;;;;;;;18.17;14.37;;;;;;;3.63;75.33;94465.22;5053233;28;20202;-78
2020/12/09 01:51:35;;;;;;;17.80;13.97;;;;;;;3.66;75.64;94464.84;5053208;28;20558;-77
2020/12/09 01:54:01;;;;;;;18.40;14.67;;;;;;;3.69;75.53;94479.00;5053142;28;20202;-77
2020/12/09 01:56:28;;;;;;;19.97;15.30;;;;;;;3.73;75.32;94493.81;5052531;28;20229;-77
2020/12/09 01:58:55;;;;;;;18.67;15.30;;;;;;;3.75;75.65;94502.09;5055251;28;20197;-77
2020/12/09 02:01:22;;;;;;;18.73;14.80;;;;;;;3.76;75.38;94505.44;5057474;28;20216;-76
2020/12/09 02:03:51;;;;;;;18.83;14.47;;;;;;;3.79;75.45;94500.00;5056410;28;20209;-78
2020/12/09 02:06:18;;;;;;;17.60;14.20;;;;;;;3.80;75.67;94504.16;5056727;28;20221;-77
2020/12/09 02:08:45;;;;;;;17.60;13.93;;;;;;;3.84;75.71;94507.97;5056392;28;20201;-77
2020/12/09 02:11:12;;;;;;;17.20;14.00;;;;;;;3.84;75.82;94505.44;5056418;28;20205;-77
2020/12/09 02:13:41;;;;;;;19.10;14.87;;;;;;;3.76;75.96;94500.34;5055932;28;20212;-77
2020/12/09 02:16:08;;;;;;;18.00;14.17;;;;;;;3.83;75.71;94497.94;5056314;28;20218;-76
2020/12/09 02:18:34;;;;;;;17.80;14.27;;;;;;;3.84;75.83;94497.78;5056110;28;20202;-77
2020/12/09 02:21:00;;;;;;;18.17;14.63;;;;;;;3.88;76.03;94493.13;5056457;28;20254;-78
2020/12/09 02:23:27;;;;;;;17.67;14.93;;;;;;;3.85;75.68;94488.41;5056593;28;20216;-77
2020/12/09 02:25:53;;;;;;;17.90;14.40;;;;;;;3.88;75.94;94477.88;5056206;28;20214;-78
2020/12/09 02:28:18;;;;;;;17.67;14.20;;;;;;;3.84;75.97;94474.88;5055879;28;20227;-78
2020/12/09 02:30:44;;;;;;;18.97;15.03;;;;;;;3.82;76.49;94476.78;5056540;28;20201;-77
2020/12/09 02:33:10;;;;;;;18.47;15.07;;;;;;;3.83;76.25;94480.13;5056122;28;20225;-76
2020/12/09 02:35:36;;;;;;;18.13;14.40;;;;;;;3.77;76.63;94477.25;5056199;28;20673;-76
2020/12/09 02:38:03;;;;;;;18.10;15.00;;;;;;;3.81;76.41;94478.53;5056248;28;20230;-77
2020/12/09 02:40:29;;;;;;;19.37;15.07;;;;;;;3.77;76.17;94489.19;5056161;28;20224;-77
2020/12/09 02:42:55;;;;;;;18.50;14.93;;;;;;;3.83;76.45;94490.31;5056030;28;20198;-77
2020/12/09 02:45:23;;;;;;;17.60;14.00;;;;;;;3.82;76.14;94492.06;5055816;28;20202;-77
2020/12/09 02:47:49;;;;;;;18.63;14.93;;;;;;;3.87;76.19;94502.53;5055720;28;20309;-78
2020/12/09 02:50:15;;;;;;;18.33;15.33;;;;;;;3.87;76.46;94494.91;5055437;28;20573;-76
2020/12/09 02:52:41;;;;;;;18.87;14.87;;;;;;;3.85;76.21;94496.81;5055346;28;20217;-77
2020/12/09 02:55:07;;;;;;;17.63;14.53;;;;;;;3.90;76.44;94498.88;5055463;28;20243;-77
2020/12/09 02:57:34;;;;;;;18.40;14.57;;;;;;;3.90;76.25;94496.31;5055299;28;20279;-78
2020/12/09 03:00:00;;;;;;;17.53;14.97;;;;;;;3.85;76.27;94491.72;5055907;28;20198;-77
2020/12/09 03:02:25;;;;;;;19.43;15.13;;;;;;;3.91;76.04;94496.16;5055519;28;20707;-77
2020/12/09 03:04:51;;;;;;;18.10;14.80;;;;;;;3.89;76.11;94487.09;5055305;28;20208;-77
2020/12/09 03:07:17;;;;;;;18.37;15.33;;;;;;;3.83;76.48;94490.31;5055654;28;20228;-77
2020/12/09 03:09:43;;;;;;;18.33;14.93;;;;;;;3.83;77.01;94488.56;5055516;28;20657;-77
2020/12/09 03:12:09;;;;;;;19.37;15.83;;;;;;;3.81;76.99;94477.75;5055172;28;20714;-76
2020/12/09 03:14:36;;;;;;;17.73;15.40;;;;;;;3.83;76.76;94486.00;5055017;28;20205;-76
2020/12/09 03:17:02;;;;;;;17.63;14.33;;;;;;;3.83;76.53;94477.59;5054901;28;20225;-77
2020/12/09 03:19:28;;;;;;;16.93;14.37;;;;;;;3.89;76.36;94472.63;5055330;28;20292;-76
2020/12/09 03:21:54;;;;;;;19.07;14.73;;;;;;;3.89;76.64;94472.63;5055323;28;20730;-77
2020/12/09 03:24:20;;;;;;;16.97;14.70;;;;;;;3.85;76.88;94471.34;5054587;28;20669;-77
2020/12/09 03:26:46;;;;;;;17.73;14.60;;;;;;;3.81;77.15;94465.81;5055301;28;20249;-76
2020/12/09 03:29:12;;;;;;;18.00;15.50;;;;;;;3.75;77.22;94469.00;5054323;28;20208;-78
2020/12/09 03:31:38;;;;;;;18.07;15.03;;;;;;;3.75;77.94;94456.25;5054704;28;20775;-77
2020/12/09 03:34:04;;;;;;;18.40;15.07;;;;;;;3.70;77.76;94453.41;5054777;28;20198;-77
2020/12/09 03:36:30;;;;;;;18.63;15.73;;;;;;;3.74;77.74;94447.03;5054649;28;20639;-76
2020/12/09 03:38:56;;;;;;;17.67;14.70;;;;;;;3.73;77.46;94458.19;5054577;28;20613;-78
2020/12/09 03:41:22;;;;;;;17.97;14.63;;;;;;;3.55;78.97;94466.94;5054639;28;20209;-77
2020/12/09 03:43:48;;;;;;;17.97;14.97;;;;;;;3.58;78.59;94471.72;5054198;28;20205;-77
2020/12/09 03:46:14;;;;;;;17.57;15.30;;;;;;;3.64;78.55;94478.72;5054455;28;20232;-78
2020/12/09 03:48:41;;;;;;;19.20;15.70;;;;;;;3.70;78.24;94478.84;5055449;28;20568;-77
2020/12/09 03:51:07;;;;;;;19.10;14.83;;;;;;;3.68;78.22;94485.06;5054608;28;20677;-76
2020/12/09 03:53:34;;;;;;;17.73;14.10;;;;;;;3.75;77.79;94483.47;5053787;28;20229;-76
2020/12/09 03:56:00;;;;;;;18.83;15.13;;;;;;;3.74;77.92;94481.88;5053859;28;20630;-77
2020/12/09 03:58:26;;;;;;;18.37;15.37;;;;;;;3.84;77.72;94474.88;5054494;28;20197;-77
2020/12/09 04:00:52;;;;;;;17.77;14.90;;;;;;;3.87;77.50;94474.53;5054325;28;20201;-77
2020/12/09 04:03:18;;;;;;;18.20;15.07;;;;;;;3.93;76.96;94486.63;5053879;28;20210;-77
2020/12/09 04:05:44;;;;;;;17.63;14.80;;;;;;;3.95;77.21;94482.16;5053349;28;20198;-77
2020/12/09 04:08:13;;;;;;;17.37;14.50;;;;;;;3.93;76.70;94484.06;5054136;28;20572;-77
2020/12/09 04:10:39;;;;;;;18.13;15.03;;;;;;;3.90;77.21;94478.50;5053924;28;20205;-77
2020/12/09 04:13:05;;;;;;;17.03;14.57;;;;;;;3.87;77.27;94476.28;5053902;28;20228;-76
2020/12/09 04:15:31;;;;;;;18.60;15.07;;;;;;;3.80;77.49;94465.97;5053501;28;20197;-77
2020/12/09 04:17:57;;;;;;;19.33;15.97;;;;;;;3.78;77.90;94462.78;5053925;28;20227;-77
2020/12/09 04:20:23;;;;;;;18.83;15.43;;;;;;;3.65;78.36;94470.94;5053506;28;20629;-78
2020/12/09 04:22:49;;;;;;;19.17;15.47;;;;;;;3.66;78.29;94474.25;5054372;28;20262;-77
2020/12/09 04:25:16;;;;;;;18.10;15.07;;;;;;;3.69;78.28;94476.47;5053493;28;20219;-78
2020/12/09 04:27:42;;;;;;;20.43;15.10;;;;;;;3.70;78.44;94481.41;5053837;28;20222;-77
2020/12/09 04:30:07;;;;;;;18.47;15.47;;;;;;;3.66;78.83;94485.22;5054125;28;20206;-77
2020/12/09 04:32:34;;;;;;;17.87;14.60;;;;;;;3.67;78.76;94486.81;5053853;28;20232;-77
2020/12/09 04:35:00;;;;;;;18.70;15.53;;;;;;;3.68;78.80;94488.41;5053704;28;20205;-76
2020/12/09 04:37:27;;;;;;;18.43;14.90;;;;;;;3.75;78.52;94502.09;5053993;28;20751;-76
2020/12/09 04:39:55;;;;;;;17.37;14.90;;;;;;;3.85;78.04;94512.06;5054440;28;20216;-77
2020/12/09 04:42:22;;;;;;;19.00;15.53;;;;;;;3.88;78.15;94519.41;5053752;28;20194;-77
2020/12/09 04:44:50;;;;;;;19.80;15.53;;;;;;;3.83;78.00;94521.66;5053407;28;20202;-77
2020/12/09 04:47:18;;;;;;;19.10;15.50;;;;;;;3.77;78.01;94527.38;5053573;28;20228;-78
2020/12/09 04:49:47;;;;;;;19.90;15.73;;;;;;;3.85;78.21;94537.53;5054021;28;20201;-78
2020/12/09 04:52:43;;;;;;;18.40;14.87;;;;;;;3.87;77.92;94539.91;5055391;28;20224;-78
2020/12/09 04:55:10;;;;;;;19.97;15.40;;;;;;;3.79;78.12;94543.28;5055407;28;20208;-76
2020/12/09 04:57:53;;;;;;;19.90;15.23;;;;;;;3.77;78.23;94545.19;5054722;28;20229;-79
2020/12/09 05:00:19;;;;;;;19.37;15.23;;;;;;;3.69;78.49;94548.53;5054859;28;20205;-78
2020/12/09 05:02:48;;;;;;;19.90;15.67;;;;;;;3.68;78.47;94552.03;5054782;28;20684;-77
2020/12/09 05:05:16;;;;;;;19.83;14.87;;;;;;;3.75;78.67;94562.38;5054968;28;20208;-78
2020/12/09 05:07:46;;;;;;;20.40;15.80;;;;;;;3.74;78.53;94561.59;5054998;28;20225;-77
2020/12/09 05:10:14;;;;;;;19.60;15.50;;;;;;;3.81;78.07;94565.09;5054675;28;20240;-78
2020/12/09 05:12:42;;;;;;;21.43;16.00;;;;;;;3.88;78.12;94575.41;5054209;28;20252;-78
2020/12/09 05:15:15;;;;;;;22.00;16.23;;;;;;;3.82;77.87;94576.06;5055695;28;20202;-78
2020/12/09 05:17:54;;;;;;;20.30;16.03;;;;;;;3.92;77.79;94568.25;5053158;28;20259;-77
2020/12/09 05:20:25;;;;;;;21.97;16.17;;;;;;;3.89;77.92;94577.00;5056206;28;20227;-76
2020/12/09 05:22:55;;;;;;;22.47;16.50;;;;;;;3.85;78.29;94574.97;5052291;28;20229;-77
2020/12/09 05:25:22;;;;;;;22.63;16.80;;;;;;;3.89;77.84;94578.75;5053007;28;20201;-76
2020/12/09 05:27:48;;;;;;;22.50;17.03;;;;;;;3.91;77.98;94581.94;5052729;28;20237;-75
2020/12/09 05:30:34;;;;;;;22.17;16.93;;;;;;;4.00;77.27;94575.91;5052608;28;20205;-75
2020/12/09 05:33:00;;;;;;;24.33;17.80;;;;;;;4.03;77.06;94585.75;5053766;28;20263;-77
2020/12/09 05:35:26;;;;;;;22.60;17.33;;;;;;;4.02;77.10;94586.72;5057210;28;20285;-77
2020/12/09 05:38:10;;;;;;;20.80;15.97;;;;;;;3.99;77.49;94585.28;5057355;28;20747;-76
2020/12/09 05:40:38;;;;;;;20.93;16.53;;;;;;;3.97;77.14;94583.84;5056423;28;20205;-76
2020/12/09 05:43:04;;;;;;;23.90;17.70;;;;;;;3.94;77.70;94590.06;5057159;28;20198;-76
2020/12/09 05:45:30;;;;;;;22.77;17.33;;;;;;;3.98;77.33;94585.44;5056697;28;20209;-78
2020/12/09 05:48:11;;;;;;;23.40;17.23;;;;;;;3.97;77.49;94583.84;5065939;28;20225;-76
2020/12/09 05:50:45;;;;;;;21.70;17.40;;;;;;;3.97;77.39;94587.19;5076371;28;20197;-76
2020/12/09 05:53:15;;;;;;;20.93;16.73;;;;;;;4.06;77.70;94578.56;5076911;28;20224;-76
2020/12/09 05:55:42;;;;;;;21.27;15.77;;;;;;;4.12;77.09;94582.22;5075640;28;20201;-77
2020/12/09 05:58:22;;;;;;;20.97;16.30;;;;;;;4.16;76.60;94580.97;5076426;28;20232;-76
2020/12/09 06:01:08;;;;;;;22.60;16.30;;;;;;;4.10;76.72;94577.28;5076471;28;20227;-76
2020/12/09 06:03:35;;;;;;;24.10;17.07;;;;;;;4.15;76.84;94575.06;5075687;28;20268;-76
2020/12/09 06:06:09;;;;;;;24.77;17.23;;;;;;;4.09;77.04;94575.69;5076495;28;20784;-76
2020/12/09 06:08:41;;;;;;;23.70;16.13;;;;;;;4.13;77.10;94576.97;5075992;28;20200;-75
2020/12/09 06:11:08;;;;;;;23.07;17.23;;;;;;;4.17;76.48;94574.91;5071200;28;20211;-77
2020/12/09 06:13:35;;;;;;;22.80;17.63;;;;;;;4.13;76.95;94588.91;5056245;28;20719;-76
2020/12/09 06:16:02;;;;;;;23.40;16.97;;;;;;;4.11;77.20;94588.28;5055479;28;20201;-76
2020/12/09 06:18:30;;;;;;;21.37;16.40;;;;;;;4.18;76.71;94584.13;5055470;28;20210;-77
2020/12/09 06:20:57;;;;;;;21.53;16.60;;;;;;;4.20;76.69;94576.34;5055128;28;20636;-78
2020/12/09 06:23:26;;;;;;;21.87;17.10;;;;;;;4.22;76.69;94580.31;5054724;28;20202;-77
2020/12/09 06:25:52;;;;;;;20.90;16.37;;;;;;;4.15;77.09;94587.81;5054586;28;20248;-76
2020/12/09 06:28:20;;;;;;;21.60;16.87;;;;;;;4.09;77.56;94580.81;5055141;28;20619;-75
2020/12/09 06:30:47;;;;;;;22.27;17.20;;;;;;;4.11;77.63;94578.09;5054664;28;20201;-77
2020/12/09 06:33:28;;;;;;;21.23;16.57;;;;;;;4.09;78.35;94582.56;5055433;28;20229;-76
2020/12/09 06:36:10;;;;;;;23.23;17.87;;;;;;;4.14;78.04;94583.66;5054464;28;20208;-78
2020/12/09 06:38:35;;;;;;;23.30;16.90;;;;;;;4.08;78.90;94580.97;5054581;28;20292;-76
2020/12/09 06:41:12;;;;;;;23.00;17.20;;;;;;;4.10;78.82;94574.75;5054481;28;20665;-78
2020/12/09 06:43:55;;;;;;;23.47;17.73;;;;;;;4.05;79.15;94576.97;5054439;28;20223;-79
2020/12/09 06:46:34;;;;;;;20.80;16.17;;;;;;;4.08;79.35;94584.31;5053376;28;20224;-76
2020/12/09 06:49:03;;;;;;;22.63;16.57;;;;;;;4.07;79.42;94584.47;5054422;28;20688;-75
2020/12/09 06:51:36;;;;;;;22.73;17.10;;;;;;;4.04;79.89;94582.25;5054875;28;20247;-79
2020/12/09 06:54:15;;;;;;;24.13;17.80;;;;;;;4.05;79.67;94586.38;5054868;28;20361;-78
2020/12/09 06:56:42;;;;;;;25.40;18.00;;;;;;;4.02;79.72;94586.72;5054075;28;20228;-77
2020/12/09 06:59:25;;;;;;;24.13;18.13;;;;;;;4.00;80.65;94594.50;5054761;28;20208;-76
2020/12/09 07:02:02;;;;;;;25.50;17.57;;;;;;;4.02;80.60;94604.53;5054968;28;20202;-78
2020/12/09 07:05:03;;;;;;;26.33;18.20;;;;;;;3.99;80.69;94603.09;5054511;28;20201;-76
2020/12/09 07:07:30;;;;;;;22.70;17.23;;;;;;;4.00;80.76;94599.59;5054838;28;20651;-76
2020/12/09 07:09:56;;;;;;;23.00;18.03;;;;;;;4.02;80.44;94604.53;5055455;28;20205;-76
2020/12/09 07:12:23;;;;;;;24.77;18.50;;;;;;;3.98;81.00;94605.81;5054785;28;20236;-77
2020/12/09 07:14:51;;;;;;;26.33;18.50;;;;;;;4.01;80.91;94602.94;5054480;28;20209;-77
2020/12/09 07:17:18;;;;;;;23.87;18.00;;;;;;;4.05;80.74;94606.75;5055129;28;20232;-77
2020/12/09 07:19:44;;;;;;;25.83;18.37;;;;;;;4.10;80.98;94622.34;5054356;28;20201;-76
2020/12/09 07:22:10;;;;;;;24.30;18.43;;;;;;;4.05;81.06;94625.38;5053800;28;20561;-76
2020/12/09 07:24:36;;;;;;;24.03;17.30;;;;;;;4.06;81.07;94629.50;5053543;28;20568;-75
2020/12/09 07:27:02;;;;;;;25.37;17.80;;;;;;;4.10;80.80;94630.78;5053824;28;20289;-75
2020/12/09 07:29:28;;;;;;;23.50;17.83;;;;;;;4.09;81.40;94630.94;5053801;28;20198;-76
2020/12/09 07:31:59;;;;;;;26.03;19.07;;;;;;;4.05;82.45;94637.31;5053857;28;20615;-79
2020/12/09 07:34:25;;;;;;;29.93;20.13;;;;;;;4.02;83.32;94635.91;5053383;28;20240;-76
2020/12/09 07:36:53;;;;;;;29.13;19.80;;;;;;;4.08;81.71;94639.53;5053980;28;20228;-76
2020/12/09 07:39:26;;;;;;;28.60;19.87;;;;;;;4.09;81.87;94646.22;5053562;28;20577;-78
2020/12/09 07:41:56;;;;;;;30.10;19.63;;;;;;;4.06;82.53;94639.69;5053178;28;20189;-76
2020/12/09 07:44:22;;;;;;;28.60;19.57;;;;;;;4.04;82.36;94636.50;5053696;28;20604;-77
2020/12/09 07:46:53;;;;;;;27.13;19.23;;;;;;;4.05;82.05;94637.31;5053395;28;20255;-76
2020/12/09 07:49:19;;;;;;;27.53;19.03;;;;;;;4.04;82.84;94635.75;5053248;28;20202;-76
2020/12/09 07:51:45;;;;;;;27.17;19.10;;;;;;;4.02;82.93;94637.66;5053942;28;20205;-76
2020/12/09 07:54:12;;;;;;;48.80;33.40;;;;;;;4.04;82.12;94636.50;5052683;28;20610;-76
2020/12/09 07:56:38;;;;;;;39.70;27.03;;;;;;;4.03;82.51;94634.94;5052130;28;20237;-79
2020/12/09 07:59:04;;;;;;;29.73;20.43;;;;;;;4.02;82.70;94635.91;5053510;28;20202;-78
2020/12/09 08:01:30;;;;;;;24.00;18.00;;;;;;;4.04;82.96;94649.25;5053486;28;20564;-76
2020/12/09 08:03:56;;;;;;;31.73;18.53;;;;;;;4.06;82.44;94644.78;5052954;28;20225;-77
2020/12/09 08:06:23;;;;;;;26.27;18.67;;;;;;;4.08;83.13;94645.44;5053581;28;20305;-80
2020/12/09 08:08:50;;;;;;;24.97;17.70;;;;;;;4.48;91.16;94651.44;5052947;28;20205;-77
2020/12/09 08:11:17;;;;;;;25.67;18.83;;;;;;;4.52;82.53;94650.16;5052891;28;20620;-76
2020/12/09 08:13:43;;;;;;;26.07;19.20;;;;;;;4.46;81.98;94648.25;5053055;28;20218;-78
2020/12/09 08:16:11;;;;;;;26.10;18.70;;;;;;;4.38;81.84;94646.53;5054208;28;20221;-76
2020/12/09 08:18:38;;;;;;;26.93;18.93;;;;;;;4.36;82.14;94652.75;5053078;28;20227;-76
2020/12/09 08:21:04;;;;;;;29.40;19.40;;;;;;;4.33;82.00;94656.41;5053047;28;20205;-76
2020/12/09 08:23:40;;;;;;;26.13;18.50;;;;;;;4.28;82.32;94660.38;5053105;28;20224;-76
2020/12/09 08:26:06;;;;;;;29.10;19.03;;;;;;;4.27;82.29;94667.22;5053787;28;20292;-77
2020/12/09 08:28:33;;;;;;;32.50;19.83;;;;;;;4.23;82.67;94670.28;5052860;28;20209;-76
2020/12/09 08:30:59;;;;;;;29.97;19.53;;;;;;;4.25;82.89;94660.69;5052636;28;20672;-77
2020/12/09 08:33:26;;;;;;;29.60;19.53;;;;;;;4.22;82.60;94668.69;5052464;28;20218;-76
2020/12/09 08:36:00;;;;;;;26.70;19.27;;;;;;;4.22;82.51;94663.59;5052193;28;20201;-76
2020/12/09 08:38:29;;;;;;;29.80;20.17;;;;;;;4.19;83.23;94663.91;5052554;28;20619;-75
2020/12/09 08:40:58;;;;;;;30.27;20.87;;;;;;;4.19;82.73;94662.16;5052270;28;20209;-76
2020/12/09 08:43:25;;;;;;;32.17;21.87;;;;;;;4.18;82.80;94667.41;5072606;23;20200;-78
2020/12/09 08:45:51;;;;;;;30.43;20.97;;;;;;;4.15;83.04;94671.06;5032350;28;20202;-80
2020/12/09 08:48:19;;;;;;;32.40;21.20;;;;;;;4.13;83.23;94671.22;5032530;28;20201;-76
2020/12/09 08:50:49;;;;;;;33.57;24.40;;;;;;;4.12;83.39;94676.47;5032774;28;20233;-76
2020/12/09 08:53:15;;;;;;;33.00;22.03;;;;;;;4.10;83.50;94680.94;5032470;28;20229;-77
2020/12/09 08:55:42;;;;;;;32.70;22.70;;;;;;;4.09;83.79;94677.56;5032127;28;20670;-77
2020/12/09 08:58:10;;;;;;;29.83;19.87;;;;;;;4.11;83.80;94678.22;5032286;28;20612;-77
2020/12/09 09:00:37;;;;;;;30.73;20.60;;;;;;;4.09;83.85;94679.34;5032640;28;20216;-79
2020/12/09 09:03:04;;;;;;;31.93;21.57;;;;;;;4.09;84.22;94674.25;5032351;28;20570;-76
2020/12/09 09:05:30;;;;;;;31.63;20.90;;;;;;;4.10;83.93;94679.19;5032468;28;20683;-79
2020/12/09 09:07:55;;;;;;;33.23;21.17;;;;;;;4.11;83.83;94685.06;5034993;28;20209;-76
2020/12/09 09:10:21;;;;;;;31.13;21.47;;;;;;;4.12;83.70;94687.47;5036556;28;20739;-76
2020/12/09 09:12:47;;;;;;;30.27;21.20;;;;;;;4.05;83.83;94680.59;5036107;28;20226;-76
2020/12/09 09:15:14;;;;;;;31.83;22.57;;;;;;;4.07;84.15;94679.50;5036338;28;20226;-78
2020/12/09 09:17:40;;;;;;;33.73;20.70;;;;;;;4.08;84.48;94680.28;5036804;28;20206;-77
2020/12/09 09:20:06;;;;;;;31.67;21.33;;;;;;;4.04;84.34;94687.44;5036418;28;20209;-79
2020/12/09 09:22:32;;;;;;;31.27;20.77;;;;;;;4.08;84.37;94696.38;5036457;28;20275;-76
2020/12/09 09:24:58;;;;;;;30.73;21.27;;;;;;;3.99;84.66;94696.53;5035554;28;20222;-76
2020/12/09 09:27:24;;;;;;;28.17;20.37;;;;;;;3.93;85.27;94702.25;5036500;28;20547;-78
2020/12/09 09:29:50;;;;;;;31.60;21.63;;;;;;;3.96;84.97;94695.09;5036073;28;20205;-76
2020/12/09 09:32:17;;;;;;;29.80;20.07;;;;;;;4.00;84.46;94687.94;5035889;28;20285;-80
2020/12/09 09:34:43;;;;;;;28.73;20.10;;;;;;;4.00;84.57;94700.66;5034976;28;20222;-76
2020/12/09 09:37:09;;;;;;;32.93;22.73;;;;;;;4.01;84.67;94697.16;5036681;28;20260;-80
2020/12/09 09:39:36;;;;;;;35.57;24.47;;;;;;;4.05;84.94;94698.41;5035013;28;20214;-81
2020/12/09 09:42:03;;;;;;;40.30;28.27;;;;;;;4.14;84.00;94689.84;5034868;28;20209;-80
2020/12/09 09:44:28;;;;;;;32.00;22.43;;;;;;;4.14;84.12;94687.31;5035936;28;20230;-81
2020/12/09 09:46:57;;;;;;;32.67;21.97;;;;;;;4.14;84.06;94687.31;5037290;28;20677;-78
2020/12/09 09:49:24;;;;;;;31.57;21.27;;;;;;;4.16;83.79;94683.66;5036451;28;20206;-77
2020/12/09 09:51:51;;;;;;;30.33;20.47;;;;;;;4.16;84.09;94677.75;5037146;28;20202;-80
2020/12/09 09:54:17;;;;;;;21.23;14.20;;;;;;;4.65;100.00;94677.69;5036465;28;20784;-80
2020/12/09 09:56:43;;;;;;;29.37;20.70;;;;;;;4.73;84.74;94677.69;5036665;28;20692;-80
2020/12/09 09:59:09;;;;;;;30.33;21.07;;;;;;;4.68;83.15;94673.06;5036727;28;20288;-78
2020/12/09 10:01:36;;;;;;;32.80;22.23;;;;;;;4.62;82.19;94678.81;5036115;28;20699;-77
2020/12/09 10:04:06;;;;;;;30.53;20.60;;;;;;;4.47;82.70;94670.22;5035545;28;20701;-78
2020/12/09 10:06:33;;;;;;;32.03;21.13;;;;;;;4.36;83.16;94666.28;5036612;28;20198;-80
2020/12/09 10:08:59;;;;;;;28.07;19.73;;;;;;;4.25;83.58;94681.88;5036088;28;20194;-78
2020/12/09 10:11:25;;;;;;;27.57;20.63;;;;;;;4.18;84.54;94683.47;5036816;28;20276;-80
2020/12/09 10:13:51;;;;;;;28.83;18.80;;;;;;;4.13;84.52;94685.72;5036410;28;20226;-80
2020/12/09 10:16:24;;;;;;;28.27;19.63;;;;;;;4.08;84.79;94683.63;5036170;28;20289;-80
2020/12/09 10:18:50;;;;;;;29.80;19.63;;;;;;;4.06;85.04;94687.28;5036037;28;20245;-81
2020/12/09 10:21:21;;;;;;;24.77;17.90;;;;;;;4.12;84.77;94679.03;5035894;28;20206;-80
2020/12/09 10:23:48;;;;;;;29.27;19.67;;;;;;;4.10;84.90;94678.38;5036172;28;20218;-80
2020/12/09 10:26:14;;;;;;;26.60;18.40;;;;;;;4.14;85.00;94683.00;5036880;28;20235;-80
2020/12/09 10:28:41;;;;;;;27.07;19.17;;;;;;;4.13;84.92;94675.53;5036327;28;20198;-78
2020/12/09 10:31:07;;;;;;;26.47;18.33;;;;;;;4.03;84.84;94675.69;5036082;28;20268;-78
2020/12/09 10:33:32;;;;;;;26.20;18.23;;;;;;;3.96;85.76;94667.09;5035426;28;20696;-80
2020/12/09 10:35:58;;;;;;;25.57;18.70;;;;;;;4.00;85.26;94660.72;5035306;28;20202;-77
2020/12/09 10:38:24;;;;;;;24.10;18.47;;;;;;;4.05;85.11;94662.78;5035803;28;20641;-77
2020/12/09 10:40:51;;;;;;;27.03;18.10;;;;;;;3.99;85.83;94659.13;5036000;28;20202;-81
2020/12/09 10:43:17;;;;;;;24.33;17.60;;;;;;;4.00;85.36;94657.38;5034991;28;20198;-81
2020/12/09 10:45:43;;;;;;;23.67;16.83;;;;;;;4.02;85.15;94658.81;5035745;28;20208;-78
2020/12/09 10:48:09;;;;;;;25.57;17.53;;;;;;;4.04;84.68;94656.13;5034846;28;20669;-78
2020/12/09 10:50:35;;;;;;;23.40;17.20;;;;;;;4.05;85.00;94662.78;5035643;28;20252;-77
2020/12/09 10:53:02;;;;;;;25.70;17.90;;;;;;;4.01;84.98;94653.88;5035327;28;20222;-77
2020/12/09 10:55:28;;;;;;;23.60;15.90;;;;;;;4.04;85.18;94654.34;5034743;28;20229;-77
2020/12/09 10:57:55;;;;;;;22.63;17.03;;;;;;;4.09;85.17;94662.31;5035468;28;20213;-80
2020/12/09 11:00:21;;;;;;;22.67;16.60;;;;;;;4.05;85.23;94666.13;5035566;28;20198;-78
2020/12/09 11:02:49;;;;;;;24.67;17.27;;;;;;;4.10;84.51;94658.81;5036110;28;20260;-81
2020/12/09 11:05:15;;;;;;;21.17;16.63;;;;;;;4.13;85.19;94655.13;5036670;28;20720;-78
2020/12/09 11:07:41;;;;;;;24.37;17.20;;;;;;;4.10;85.25;94652.91;5035895;28;20202;-78
2020/12/09 11:10:07;;;;;;;22.63;17.57;;;;;;;4.10;84.75;94640.97;5035640;28;20206;-79
2020/12/09 11:12:33;;;;;;;23.37;16.50;;;;;;;4.03;84.67;94645.13;5035608;28;20202;-79
2020/12/09 11:15:00;;;;;;;22.13;15.67;;;;;;;4.04;85.06;94644.16;5036075;28;20226;-79
2020/12/09 11:17:26;;;;;;;24.47;16.43;;;;;;;4.07;85.48;94645.59;5035800;28;20206;-82
2020/12/09 11:19:52;;;;;;;21.20;16.60;;;;;;;4.09;85.02;94636.03;5035632;28;20679;-82
2020/12/09 11:22:18;;;;;;;23.07;15.83;;;;;;;4.11;85.18;94641.75;5035800;28;20202;-79
2020/12/09 11:24:47;;;;;;;20.37;15.03;;;;;;;4.18;84.74;94630.00;5035392;28;20245;-79
2020/12/09 11:27:13;;;;;;;22.40;16.63;;;;;;;4.16;84.77;94637.78;5036243;28;20739;-79